Terminal Aerodrome Forecast
Issued by NWS

Home | Current Version | Previous Version | Text Only | Print | Product List | Glossary On
Versions: 1 2 3 4 5 6 7 8 9 10 11 12 13 14 15 16 17 18 19 20 21 22 23 24
000
FTUS45 KABQ 230523
TAFTCC
TAF
KTCC 230523Z 2306/2406 16010KT P6SM VCSH OVC020
      TEMPO 2307/2310 VRB20G35KT 2SM TSRA OVC010CB
     FM231000 19015KT P6SM VCTS OVC009CB
     FM231200 18012KT P6SM OVC015
     FM231400 20015KT P6SM OVC025
     FM231700 23015G23KT P6SM SKC=

USA.gov is the U.S. government's official web portal to all federal, state and local government web resources and services.